Tacoma/McChord AFB, Washington
Current Conditions -  °F | °C
As of 6:58 PM on Friday 24 Oct 2014 (Local Time) from KTCM Reporting Station
Light Rain Light Rain  
Wind Chill: 53°   Ceiling: 5500
Heat Index: 53°   Visibility: 10mi
Dew Point: 50°   Wind: 5mph
Humidity: 91%   Direction: 30°NNE
Pressure: 29.85"   Gusts: NA
Location:  47.15°N, 122.48°W
Report Text: KTCM 250158Z AUTO 03004KT 10SM -RA FEW046 OVC055 12/10 A2985 RMK AO2 RAB0056 SLP113 P0001 T01160101 $
Loading
Personal Weather Stations






























Interactive Weather Map
Tropical Storm Tracking
New forecast layout! Learn more

10-Day Weather Forecast

Advertisements
Track Severe Weather on mobile